<?xml version='1.0' encoding='UTF-8'?><gpx version="1.1" creator="JPX - https://github.com/jenetics/jpx" xmlns="http://www.topografix.com/GPX/1/1"><trk><trkseg><trkpt lat="55.57783775177319" lon="38.921322506905085"><ele>124.0</ele><time>2026-05-02T11:35:35Z</time></trkpt><trkpt lat="55.57782803018162" lon="38.92119997989727"><ele>124.0</ele><time>2026-05-02T11:35:37Z</time></trkpt><trkpt lat="55.578083381544566" lon="38.921016137067475"><ele>124.0</ele><time>2026-05-02T11:35:40Z</time></trkpt><trkpt lat="55.577894755072485" lon="38.92094842708381"><ele>123.80000000000001</ele><time>2026-05-02T11:35:46Z</time></trkpt><trkpt lat="55.57797251744265" lon="38.92091535605098"><ele>123.60000000000001</ele><time>2026-05-02T11:35:49Z</time></trkpt><trkpt lat="55.578046938344954" lon="38.920928925272904"><ele>123.4</ele><time>2026-05-02T11:35:51.001Z</time></trkpt><trkpt lat="55.57807081230371" lon="38.92105877774752"><ele>123.2</ele><time>2026-05-02T11:35:53.001Z</time></trkpt><trkpt lat="55.578078214532404" lon="38.9212650480891"><ele>123.0</ele><time>2026-05-02T11:35:55.001Z</time></trkpt><trkpt lat="55.57809019510079" lon="38.921521922912525"><ele>123.0</ele><time>2026-05-02T11:35:57.001Z</time></trkpt><trkpt lat="55.57810037852253" lon="38.92169576604194"><ele>123.0</ele><time>2026-05-02T11:35:58.001Z</time></trkpt><trkpt lat="55.5781082010345" lon="38.9218391083411"><ele>123.0</ele><time>2026-05-02T11:35:59.001Z</time></trkpt><trkpt lat="55.57811471584874" lon="38.92197596451359"><ele>123.0</ele><time>2026-05-02T11:36:00.001Z</time></trkpt><trkpt lat="55.57813316430919" lon="38.92210301770255"><ele>123.0</ele><time>2026-05-02T11:36:01.001Z</time></trkpt><trkpt lat="55.57813386427201" lon="38.922258083285165"><ele>123.0</ele><time>2026-05-02T11:36:03.001Z</time></trkpt><trkpt lat="55.5782258890314" lon="38.92231496588605"><ele>122.83333333333333</ele><time>2026-05-02T11:36:12.001Z</time></trkpt><trkpt lat="55.57834967485763" lon="38.922307657551784"><ele>122.66666666666666</ele><time>2026-05-02T11:36:14.001Z</time></trkpt><trkpt lat="55.5784181185657" lon="38.92228537806765"><ele>122.5</ele><time>2026-05-02T11:36:15.001Z</time></trkpt><trkpt lat="55.578495780381054" lon="38.92225559314268"><ele>122.33333333333333</ele><time>2026-05-02T11:36:16.001Z</time></trkpt><trkpt lat="55.5785736834353" lon="38.922237357159055"><ele>122.16666666666666</ele><time>2026-05-02T11:36:17.001Z</time></trkpt><trkpt lat="55.578645770754406" lon="38.92221900091979"><ele>122.0</ele><time>2026-05-02T11:36:18.001Z</time></trkpt><trkpt lat="55.578709312608964" lon="38.92220609942951"><ele>121.99999999999999</ele><time>2026-05-02T11:36:19.001Z</time></trkpt><trkpt lat="55.57882269806659" lon="38.922175287536774"><ele>122.0</ele><time>2026-05-02T11:36:21.001Z</time></trkpt><trkpt lat="55.57893995758303" lon="38.9221435852431"><ele>122.0</ele><time>2026-05-02T11:36:23.001Z</time></trkpt><trkpt lat="55.57901190720241" lon="38.9221313756586"><ele>122.0</ele><time>2026-05-02T11:36:24.001Z</time></trkpt><trkpt lat="55.579084206201486" lon="38.92212734232996"><ele>121.99999999999999</ele><time>2026-05-02T11:36:25.001Z</time></trkpt><trkpt lat="55.57914738123562" lon="38.92215270460784"><ele>122.0</ele><time>2026-05-02T11:36:26.001Z</time></trkpt><trkpt lat="55.57922643708556" lon="38.922176370287524"><ele>122.0</ele><time>2026-05-02T11:36:28.001Z</time></trkpt><trkpt lat="55.57923022828581" lon="38.9223658850998"><ele>121.99999999999999</ele><time>2026-05-02T11:36:30.001Z</time></trkpt><trkpt lat="55.57924099890781" lon="38.92253083692994"><ele>121.99999999999999</ele><time>2026-05-02T11:36:33.002Z</time></trkpt><trkpt lat="55.579254559158365" lon="38.92273720760338"><ele>122.0</ele><time>2026-05-02T11:36:35.002Z</time></trkpt><trkpt lat="55.57926287897976" lon="38.92286382535977"><ele>122.0</ele><time>2026-05-02T11:36:36.002Z</time></trkpt><trkpt lat="55.579288564601825" lon="38.92301036047528"><ele>122.0</ele><time>2026-05-02T11:36:37.002Z</time></trkpt><trkpt lat="55.579292140464254" lon="38.92315736507648"><ele>121.99999999999999</ele><time>2026-05-02T11:36:38.002Z</time></trkpt><trkpt lat="55.57930342332238" lon="38.92330078755402"><ele>121.99999999999999</ele><time>2026-05-02T11:36:39.002Z</time></trkpt><trkpt lat="55.579318391919045" lon="38.92346549244038"><ele>122.0</ele><time>2026-05-02T11:36:40.002Z</time></trkpt><trkpt lat="55.579326335839575" lon="38.923634244447804"><ele>122.0</ele><time>2026-05-02T11:36:41.002Z</time></trkpt><trkpt lat="55.57933991997166" lon="38.92382123809183"><ele>122.0</ele><time>2026-05-02T11:36:42.002Z</time></trkpt><trkpt lat="55.579338497414874" lon="38.924016039655726"><ele>122.0</ele><time>2026-05-02T11:36:43.002Z</time></trkpt><trkpt lat="55.57935186792138" lon="38.92421955624866"><ele>122.0</ele><time>2026-05-02T11:36:44.002Z</time></trkpt><trkpt lat="55.57936505777663" lon="38.92442027631015"><ele>122.0</ele><time>2026-05-02T11:36:45.002Z</time></trkpt><trkpt lat="55.579378186430084" lon="38.92462045168352"><ele>121.75</ele><time>2026-05-02T11:36:46.002Z</time></trkpt><trkpt lat="55.57939163665926" lon="38.9248265423558"><ele>121.5</ele><time>2026-05-02T11:36:47.002Z</time></trkpt><trkpt lat="55.57940588447492" lon="38.925044854172555"><ele>121.25</ele><time>2026-05-02T11:36:48.002Z</time></trkpt><trkpt lat="55.57942034697005" lon="38.9252664553135"><ele>121.0</ele><time>2026-05-02T11:36:49.002Z</time></trkpt><trkpt lat="55.579435434102535" lon="38.92549701070917"><ele>121.0</ele><time>2026-05-02T11:36:50.002Z</time></trkpt><trkpt lat="55.5794503406352" lon="38.925721932794204"><ele>121.0</ele><time>2026-05-02T11:36:51.002Z</time></trkpt><trkpt lat="55.579464983824" lon="38.925943371799676"><ele>121.0</ele><time>2026-05-02T11:36:52.002Z</time></trkpt><trkpt lat="55.57947942825203" lon="38.92616528202626"><ele>121.0</ele><time>2026-05-02T11:36:53.002Z</time></trkpt><trkpt lat="55.57949376436738" lon="38.92638547614274"><ele>120.8</ele><time>2026-05-02T11:36:54.002Z</time></trkpt><trkpt lat="55.57950674822867" lon="38.92658244853854"><ele>120.6</ele><time>2026-05-02T11:36:55.002Z</time></trkpt><trkpt lat="55.57953369323659" lon="38.926769803222285"><ele>120.4</ele><time>2026-05-02T11:36:56.002Z</time></trkpt><trkpt lat="55.57954181191647" lon="38.92694247552355"><ele>120.2</ele><time>2026-05-02T11:36:57.002Z</time></trkpt><trkpt lat="55.57955505054657" lon="38.92710351807871"><ele>120.0</ele><time>2026-05-02T11:36:58.002Z</time></trkpt><trkpt lat="55.579563388596675" lon="38.92726069822799"><ele>120.0</ele><time>2026-05-02T11:36:59.002Z</time></trkpt><trkpt lat="55.57957344030489" lon="38.92739585101995"><ele>120.0</ele><time>2026-05-02T11:37:00.002Z</time></trkpt><trkpt lat="55.57957837482273" lon="38.92751289488284"><ele>120.0</ele><time>2026-05-02T11:37:01.002Z</time></trkpt><trkpt lat="55.57958651728412" lon="38.927634562211544"><ele>120.0</ele><time>2026-05-02T11:37:03.002Z</time></trkpt><trkpt lat="55.579594481353645" lon="38.92778457754108"><ele>120.0</ele><time>2026-05-02T11:37:06.002Z</time></trkpt><trkpt lat="55.57960609063955" lon="38.92797918161609"><ele>120.0</ele><time>2026-05-02T11:37:08.002Z</time></trkpt><trkpt lat="55.57961567373902" lon="38.92810371394838"><ele>119.8</ele><time>2026-05-02T11:37:09.002Z</time></trkpt><trkpt lat="55.579628254819234" lon="38.928246894555336"><ele>119.6</ele><time>2026-05-02T11:37:10.002Z</time></trkpt><trkpt lat="55.579640832006504" lon="38.92839430673256"><ele>119.4</ele><time>2026-05-02T11:37:11.002Z</time></trkpt><trkpt lat="55.57965260414026" lon="38.928547760076405"><ele>119.2</ele><time>2026-05-02T11:37:12.002Z</time></trkpt><trkpt lat="55.5796609872431" lon="38.92871611971089"><ele>119.0</ele><time>2026-05-02T11:37:13.002Z</time></trkpt><trkpt lat="55.57966536908806" lon="38.92889347070001"><ele>119.0</ele><time>2026-05-02T11:37:14.003Z</time></trkpt><trkpt lat="55.57968462101438" lon="38.92906850681189"><ele>119.0</ele><time>2026-05-02T11:37:15.003Z</time></trkpt><trkpt lat="55.579698496813215" lon="38.929239822795246"><ele>119.0</ele><time>2026-05-02T11:37:16.003Z</time></trkpt><trkpt lat="55.5797024615941" lon="38.9293912246121"><ele>119.0</ele><time>2026-05-02T11:37:17.003Z</time></trkpt><trkpt lat="55.57970585074084" lon="38.929517840940136"><ele>119.0</ele><time>2026-05-02T11:37:18.003Z</time></trkpt><trkpt lat="55.57971937582152" lon="38.92973374376278"><ele>118.80000000000001</ele><time>2026-05-02T11:37:20.003Z</time></trkpt><trkpt lat="55.57972912652881" lon="38.92986456526854"><ele>118.60000000000001</ele><time>2026-05-02T11:37:21.003Z</time></trkpt><trkpt lat="55.579739558509345" lon="38.930012884979895"><ele>118.4</ele><time>2026-05-02T11:37:22.003Z</time></trkpt><trkpt lat="55.57975322475006" lon="38.93016931755787"><ele>118.2</ele><time>2026-05-02T11:37:23.003Z</time></trkpt><trkpt lat="55.57976246358161" lon="38.93033980128827"><ele>118.0</ele><time>2026-05-02T11:37:24.003Z</time></trkpt><trkpt lat="55.57977340599081" lon="38.93052401028768"><ele>117.80000000000001</ele><time>2026-05-02T11:37:25.003Z</time></trkpt><trkpt lat="55.57977719751758" lon="38.930703293582454"><ele>117.60000000000001</ele><time>2026-05-02T11:37:26.003Z</time></trkpt><trkpt lat="55.57978063674475" lon="38.93088799207808"><ele>117.39999999999999</ele><time>2026-05-02T11:37:27.003Z</time></trkpt><trkpt lat="55.57977751309253" lon="38.931083536976885"><ele>117.19999999999999</ele><time>2026-05-02T11:37:28.003Z</time></trkpt><trkpt lat="55.57977209273084" lon="38.931282541765796"><ele>117.0</ele><time>2026-05-02T11:37:29.003Z</time></trkpt><trkpt lat="55.57975816571383" lon="38.93148581669953"><ele>117.0</ele><time>2026-05-02T11:37:30.003Z</time></trkpt><trkpt lat="55.579741764878506" lon="38.93169863116872"><ele>117.0</ele><time>2026-05-02T11:37:31.003Z</time></trkpt><trkpt lat="55.57972535422484" lon="38.931915110063585"><ele>117.0</ele><time>2026-05-02T11:37:32.003Z</time></trkpt><trkpt lat="55.579708472799666" lon="38.932147378704144"><ele>117.0</ele><time>2026-05-02T11:37:33.003Z</time></trkpt><trkpt lat="55.579691384621874" lon="38.93237231981067"><ele>117.25</ele><time>2026-05-02T11:37:34.003Z</time></trkpt><trkpt lat="55.57967354587517" lon="38.932596815486995"><ele>117.5</ele><time>2026-05-02T11:37:35.003Z</time></trkpt><trkpt lat="55.579654215974955" lon="38.93282571741319"><ele>117.75</ele><time>2026-05-02T11:37:36.003Z</time></trkpt><trkpt lat="55.57963576490672" lon="38.93305251418963"><ele>118.0</ele><time>2026-05-02T11:37:37.003Z</time></trkpt><trkpt lat="55.579617295638066" lon="38.933280938671956"><ele>117.75</ele><time>2026-05-02T11:37:38.003Z</time></trkpt><trkpt lat="55.579596796625744" lon="38.9335084819605"><ele>117.5</ele><time>2026-05-02T11:37:39Z</time></trkpt><trkpt lat="55.57957791168942" lon="38.93372671524383"><ele>117.25</ele><time>2026-05-02T11:37:40Z</time></trkpt><trkpt lat="55.579560195757566" lon="38.93394363815735"><ele>117.0</ele><time>2026-05-02T11:37:41Z</time></trkpt><trkpt lat="55.57954128122348" lon="38.93415949103108"><ele>117.0</ele><time>2026-05-02T11:37:42Z</time></trkpt><trkpt lat="55.5795250003394" lon="38.93437278394795"><ele>117.0</ele><time>2026-05-02T11:37:43Z</time></trkpt><trkpt lat="55.57950811774068" lon="38.934586477081616"><ele>117.0</ele><time>2026-05-02T11:37:44Z</time></trkpt><trkpt lat="55.57949017390922" lon="38.934806481444234"><ele>117.0</ele><time>2026-05-02T11:37:45Z</time></trkpt><trkpt lat="55.57947528125789" lon="38.93502058651268"><ele>117.75</ele><time>2026-05-02T11:37:46Z</time></trkpt><trkpt lat="55.57945860156702" lon="38.935235700472106"><ele>118.5</ele><time>2026-05-02T11:37:47Z</time></trkpt><trkpt lat="55.57943928288409" lon="38.935444568604595"><ele>119.25</ele><time>2026-05-02T11:37:48Z</time></trkpt><trkpt lat="55.57942290070301" lon="38.9356424912298"><ele>120.0</ele><time>2026-05-02T11:37:49Z</time></trkpt><trkpt lat="55.579409001986654" lon="38.93583311169582"><ele>120.0</ele><time>2026-05-02T11:37:50Z</time></trkpt><trkpt lat="55.57939686006473" lon="38.93600762390052"><ele>120.0</ele><time>2026-05-02T11:37:51Z</time></trkpt><trkpt lat="55.579385258369854" lon="38.936165704044505"><ele>120.0</ele><time>2026-05-02T11:37:52Z</time></trkpt><trkpt lat="55.57937369762421" lon="38.93630890617789"><ele>120.0</ele><time>2026-05-02T11:37:53Z</time></trkpt><trkpt lat="55.579364941568926" lon="38.93645090099969"><ele>120.0</ele><time>2026-05-02T11:37:54Z</time></trkpt><trkpt lat="55.57936001310339" lon="38.93660083597355"><ele>120.0</ele><time>2026-05-02T11:37:55Z</time></trkpt><trkpt lat="55.579357319718255" lon="38.93675915892002"><ele>120.0</ele><time>2026-05-02T11:37:56Z</time></trkpt><trkpt lat="55.579352727821174" lon="38.936924241621966"><ele>120.0</ele><time>2026-05-02T11:37:57Z</time></trkpt><trkpt lat="55.5793440349994" lon="38.93709997920588"><ele>120.0</ele><time>2026-05-02T11:37:58Z</time></trkpt><trkpt lat="55.57932443955635" lon="38.93727378229454"><ele>120.0</ele><time>2026-05-02T11:37:59Z</time></trkpt><trkpt lat="55.579281989853655" lon="38.93744484382507"><ele>120.0</ele><time>2026-05-02T11:38:00Z</time></trkpt><trkpt lat="55.57924038000035" lon="38.93763392503649"><ele>119.75</ele><time>2026-05-02T11:38:01Z</time></trkpt><trkpt lat="55.57919727939073" lon="38.93782978039227"><ele>119.5</ele><time>2026-05-02T11:38:02.001Z</time></trkpt><trkpt lat="55.57915272488958" lon="38.93803224274204"><ele>119.25</ele><time>2026-05-02T11:38:03.001Z</time></trkpt><trkpt lat="55.57910612631376" lon="38.938243039880376"><ele>119.0</ele><time>2026-05-02T11:38:04.001Z</time></trkpt><trkpt lat="55.579059745309884" lon="38.938452551295086"><ele>118.75</ele><time>2026-05-02T11:38:05.001Z</time></trkpt><trkpt lat="55.57901361481211" lon="38.938661164400735"><ele>118.5</ele><time>2026-05-02T11:38:06.001Z</time></trkpt><trkpt lat="55.57896608539703" lon="38.938877212341055"><ele>118.25</ele><time>2026-05-02T11:38:07.001Z</time></trkpt><trkpt lat="55.57892027752799" lon="38.9390858546923"><ele>118.0</ele><time>2026-05-02T11:38:08.001Z</time></trkpt><trkpt lat="55.578883908670406" lon="38.93929723197518"><ele>117.75</ele><time>2026-05-02T11:38:09.001Z</time></trkpt><trkpt lat="55.57883804166043" lon="38.93950978609907"><ele>117.5</ele><time>2026-05-02T11:38:10.001Z</time></trkpt><trkpt lat="55.57878942699921" lon="38.93972454498442"><ele>117.25</ele><time>2026-05-02T11:38:11.001Z</time></trkpt><trkpt lat="55.57874080993517" lon="38.939940173442146"><ele>117.0</ele><time>2026-05-02T11:38:12.001Z</time></trkpt><trkpt lat="55.578686980538" lon="38.9401692276618"><ele>117.0</ele><time>2026-05-02T11:38:13.001Z</time></trkpt><trkpt lat="55.57863247141143" lon="38.94040341857031"><ele>117.0</ele><time>2026-05-02T11:38:14.001Z</time></trkpt><trkpt lat="55.578576937944135" lon="38.940638324208244"><ele>117.0</ele><time>2026-05-02T11:38:15.001Z</time></trkpt><trkpt lat="55.57851674057334" lon="38.94088163780197"><ele>117.0</ele><time>2026-05-02T11:38:16.001Z</time></trkpt><trkpt lat="55.5784596922086" lon="38.94112580717556"><ele>117.0</ele><time>2026-05-02T11:38:17.001Z</time></trkpt><trkpt lat="55.5784005752685" lon="38.94138262117036"><ele>117.0</ele><time>2026-05-02T11:38:18.001Z</time></trkpt><trkpt lat="55.57834490085487" lon="38.94163150895602"><ele>117.0</ele><time>2026-05-02T11:38:19.001Z</time></trkpt><trkpt lat="55.57828706912448" lon="38.9418910363974"><ele>117.33333333333334</ele><time>2026-05-02T11:38:20.001Z</time></trkpt><trkpt lat="55.578228241404005" lon="38.94215002498527"><ele>117.66666666666667</ele><time>2026-05-02T11:38:21.001Z</time></trkpt><trkpt lat="55.5781694379728" lon="38.94240608514917"><ele>118.0</ele><time>2026-05-02T11:38:22.001Z</time></trkpt><trkpt lat="55.578108688177466" lon="38.942667899336755"><ele>118.0</ele><time>2026-05-02T11:38:23.001Z</time></trkpt><trkpt lat="55.578052150365295" lon="38.94292861010559"><ele>118.0</ele><time>2026-05-02T11:38:24.001Z</time></trkpt><trkpt lat="55.57799206020005" lon="38.94320116159248"><ele>118.0</ele><time>2026-05-02T11:38:25.001Z</time></trkpt><trkpt lat="55.577932970052466" lon="38.9434736736655"><ele>118.0</ele><time>2026-05-02T11:38:26.001Z</time></trkpt><trkpt lat="55.57787802071975" lon="38.94373195363666"><ele>118.0</ele><time>2026-05-02T11:38:27.001Z</time></trkpt><trkpt lat="55.57781392260789" lon="38.94400234423499"><ele>118.0</ele><time>2026-05-02T11:38:28.001Z</time></trkpt><trkpt lat="55.577753359109956" lon="38.94427909858437"><ele>118.33333333333334</ele><time>2026-05-02T11:38:29.001Z</time></trkpt><trkpt lat="55.5776929598824" lon="38.94455044211875"><ele>118.66666666666666</ele><time>2026-05-02T11:38:30.001Z</time></trkpt><trkpt lat="55.57763218071496" lon="38.94482173398353"><ele>119.0</ele><time>2026-05-02T11:38:31.001Z</time></trkpt><trkpt lat="55.577569711725054" lon="38.94509865045687"><ele>119.0</ele><time>2026-05-02T11:38:32.001Z</time></trkpt><trkpt lat="55.57750902712862" lon="38.94537499790091"><ele>119.0</ele><time>2026-05-02T11:38:33.001Z</time></trkpt><trkpt lat="55.577446010108716" lon="38.945657543345106"><ele>119.0</ele><time>2026-05-02T11:38:34Z</time></trkpt><trkpt lat="55.57738298253377" lon="38.94593477813727"><ele>119.0</ele><time>2026-05-02T11:38:35Z</time></trkpt><trkpt lat="55.577318827715395" lon="38.94622856044826"><ele>119.0</ele><time>2026-05-02T11:38:36Z</time></trkpt><trkpt lat="55.577254151258316" lon="38.946515209708956"><ele>119.0</ele><time>2026-05-02T11:38:37Z</time></trkpt><trkpt lat="55.577190115638665" lon="38.94680690127924"><ele>119.0</ele><time>2026-05-02T11:38:38Z</time></trkpt><trkpt lat="55.577127355859524" lon="38.94709761209502"><ele>119.0</ele><time>2026-05-02T11:38:39.001Z</time></trkpt><trkpt lat="55.57706339432505" lon="38.94738412104139"><ele>119.0</ele><time>2026-05-02T11:38:40.001Z</time></trkpt><trkpt lat="55.57699861114219" lon="38.94767168086595"><ele>119.66666666666666</ele><time>2026-05-02T11:38:41.001Z</time></trkpt><trkpt lat="55.57693249177534" lon="38.94796487174009"><ele>120.33333333333334</ele><time>2026-05-02T11:38:42.001Z</time></trkpt><trkpt lat="55.57686722607219" lon="38.94825477086006"><ele>121.0</ele><time>2026-05-02T11:38:43.001Z</time></trkpt><trkpt lat="55.576800742524284" lon="38.94854686851889"><ele>121.0</ele><time>2026-05-02T11:38:44.001Z</time></trkpt><trkpt lat="55.57673710592133" lon="38.94883192720505"><ele>121.0</ele><time>2026-05-02T11:38:45.001Z</time></trkpt><trkpt lat="55.576672148190134" lon="38.949122600774444"><ele>121.0</ele><time>2026-05-02T11:38:46.001Z</time></trkpt><trkpt lat="55.576608338850896" lon="38.94941404470216"><ele>121.0</ele><time>2026-05-02T11:38:47.001Z</time></trkpt><trkpt lat="55.57654842842158" lon="38.9497063840291"><ele>121.0</ele><time>2026-05-02T11:38:48.001Z</time></trkpt><trkpt lat="55.576493868154245" lon="38.949995990725164"><ele>121.0</ele><time>2026-05-02T11:38:49.001Z</time></trkpt><trkpt lat="55.576440316961246" lon="38.950291502861916"><ele>120.66666666666667</ele><time>2026-05-02T11:38:50.001Z</time></trkpt><trkpt lat="55.576387244952215" lon="38.95058724936301"><ele>120.33333333333334</ele><time>2026-05-02T11:38:51.001Z</time></trkpt><trkpt lat="55.57631790619241" lon="38.950876353453076"><ele>120.0</ele><time>2026-05-02T11:38:52.001Z</time></trkpt><trkpt lat="55.57627349676691" lon="38.95118668660405"><ele>120.0</ele><time>2026-05-02T11:38:53.001Z</time></trkpt><trkpt lat="55.57621348233195" lon="38.95148814290204"><ele>120.0</ele><time>2026-05-02T11:38:54.001Z</time></trkpt><trkpt lat="55.57615957562867" lon="38.95179617302001"><ele>120.0</ele><time>2026-05-02T11:38:55.001Z</time></trkpt><trkpt lat="55.576108365378154" lon="38.952103364444625"><ele>120.0</ele><time>2026-05-02T11:38:56.001Z</time></trkpt><trkpt lat="55.57605774612319" lon="38.952416161524766"><ele>120.0</ele><time>2026-05-02T11:38:57.001Z</time></trkpt><trkpt lat="55.57600567609852" lon="38.95272770438269"><ele>120.0</ele><time>2026-05-02T11:38:58.001Z</time></trkpt><trkpt lat="55.57595325494909" lon="38.95304028996632"><ele>120.0</ele><time>2026-05-02T11:38:59.001Z</time></trkpt><trkpt lat="55.575901699597104" lon="38.953351767143026"><ele>120.0</ele><time>2026-05-02T11:39:00.001Z</time></trkpt><trkpt lat="55.57584989898162" lon="38.9536616465879"><ele>120.0</ele><time>2026-05-02T11:39:01.001Z</time></trkpt><trkpt lat="55.57579997158673" lon="38.95397127317729"><ele>120.0</ele><time>2026-05-02T11:39:02.001Z</time></trkpt><trkpt lat="55.57574880699228" lon="38.95428362470927"><ele>120.0</ele><time>2026-05-02T11:39:03.001Z</time></trkpt><trkpt lat="55.57569678723581" lon="38.95458824933885"><ele>120.0</ele><time>2026-05-02T11:39:04.001Z</time></trkpt><trkpt lat="55.57564475188063" lon="38.954895096076754"><ele>119.66666666666666</ele><time>2026-05-02T11:39:05.001Z</time></trkpt><trkpt lat="55.57559271706341" lon="38.95520154744609"><ele>119.33333333333333</ele><time>2026-05-02T11:39:06.001Z</time></trkpt><trkpt lat="55.575542957362764" lon="38.95550854653405"><ele>119.0</ele><time>2026-05-02T11:39:07.001Z</time></trkpt><trkpt lat="55.57549258465254" lon="38.95580948739547"><ele>118.66666666666666</ele><time>2026-05-02T11:39:08.001Z</time></trkpt><trkpt lat="55.57544628821104" lon="38.95608620970523"><ele>118.33333333333334</ele><time>2026-05-02T11:39:09.001Z</time></trkpt><trkpt lat="55.57540196924785" lon="38.95635298743849"><ele>118.0</ele><time>2026-05-02T11:39:10.001Z</time></trkpt><trkpt lat="55.57535503090501" lon="38.95661518751551"><ele>118.0</ele><time>2026-05-02T11:39:11.001Z</time></trkpt><trkpt lat="55.57531272123357" lon="38.956868918731764"><ele>118.0</ele><time>2026-05-02T11:39:12.001Z</time></trkpt><trkpt lat="55.575271535138654" lon="38.957122490549764"><ele>118.0</ele><time>2026-05-02T11:39:13.001Z</time></trkpt><trkpt lat="55.57521243513155" lon="38.957366991795226"><ele>118.0</ele><time>2026-05-02T11:39:14.001Z</time></trkpt><trkpt lat="55.5751674502833" lon="38.95761974711359"><ele>118.0</ele><time>2026-05-02T11:39:15.001Z</time></trkpt><trkpt lat="55.57512414399699" lon="38.95786736253047"><ele>118.0</ele><time>2026-05-02T11:39:16.001Z</time></trkpt><trkpt lat="55.57507935013147" lon="38.95811929100878"><ele>118.0</ele><time>2026-05-02T11:39:17.001Z</time></trkpt><trkpt lat="55.5750352458364" lon="38.958369700626896"><ele>118.0</ele><time>2026-05-02T11:39:18.002Z</time></trkpt><trkpt lat="55.57499095517795" lon="38.958620991188866"><ele>118.0</ele><time>2026-05-02T11:39:19.002Z</time></trkpt><trkpt lat="55.574947442852746" lon="38.958869625944345"><ele>118.0</ele><time>2026-05-02T11:39:20.002Z</time></trkpt><trkpt lat="55.57490236623454" lon="38.959123915767364"><ele>118.0</ele><time>2026-05-02T11:39:21.002Z</time></trkpt><trkpt lat="55.57485609018824" lon="38.9593874844472"><ele>118.33333333333334</ele><time>2026-05-02T11:39:22.002Z</time></trkpt><trkpt lat="55.57481125540469" lon="38.959642426509596"><ele>118.66666666666666</ele><time>2026-05-02T11:39:23.002Z</time></trkpt><trkpt lat="55.57476504774505" lon="38.95990389528804"><ele>119.0</ele><time>2026-05-02T11:39:24.002Z</time></trkpt><trkpt lat="55.574720415544" lon="38.960157795052076"><ele>119.0</ele><time>2026-05-02T11:39:25.002Z</time></trkpt><trkpt lat="55.57467646899522" lon="38.96040803752689"><ele>119.0</ele><time>2026-05-02T11:39:26.002Z</time></trkpt><trkpt lat="55.574630701889035" lon="38.96066486003631"><ele>119.0</ele><time>2026-05-02T11:39:27.002Z</time></trkpt><trkpt lat="55.57458641857041" lon="38.96091626513736"><ele>119.0</ele><time>2026-05-02T11:39:28.002Z</time></trkpt><trkpt lat="55.57454133261483" lon="38.96117264834163"><ele>119.33333333333333</ele><time>2026-05-02T11:39:29.002Z</time></trkpt><trkpt lat="55.574495865303355" lon="38.96143120015246"><ele>119.66666666666666</ele><time>2026-05-02T11:39:30.002Z</time></trkpt><trkpt lat="55.57444963703692" lon="38.961694079179026"><ele>120.0</ele><time>2026-05-02T11:39:31.002Z</time></trkpt><trkpt lat="55.574403844324955" lon="38.96195399723345"><ele>120.25</ele><time>2026-05-02T11:39:32.002Z</time></trkpt><trkpt lat="55.57435772829575" lon="38.96220139466169"><ele>120.5</ele><time>2026-05-02T11:39:33.002Z</time></trkpt><trkpt lat="55.57431473258678" lon="38.962432160035824"><ele>120.75</ele><time>2026-05-02T11:39:34.002Z</time></trkpt><trkpt lat="55.574275396655885" lon="38.96264261198177"><ele>121.0</ele><time>2026-05-02T11:39:35.002Z</time></trkpt><trkpt lat="55.574242325015035" lon="38.96281954927018"><ele>121.0</ele><time>2026-05-02T11:39:36.002Z</time></trkpt><trkpt lat="55.574214962574075" lon="38.962965941580634"><ele>121.0</ele><time>2026-05-02T11:39:37.002Z</time></trkpt><trkpt lat="55.57418321355588" lon="38.963135753568835"><ele>121.0</ele><time>2026-05-02T11:39:39.002Z</time></trkpt><trkpt lat="55.57411650860124" lon="38.96319744438173"><ele>121.0</ele><time>2026-05-02T11:39:42.002Z</time></trkpt><trkpt lat="55.57398225461585" lon="38.96307451670144"><ele>121.0</ele><time>2026-05-02T11:39:45.999Z</time></trkpt><trkpt lat="55.57392528374264" lon="38.96301279582852"><ele>121.00000000000001</ele><time>2026-05-02T11:39:47.999Z</time></trkpt><trkpt lat="55.573859271330065" lon="38.96295223867771"><ele>121.0</ele><time>2026-05-02T11:39:49.999Z</time></trkpt><trkpt lat="55.57378905508846" lon="38.962908268053646"><ele>121.0</ele><time>2026-05-02T11:39:51.999Z</time></trkpt><trkpt lat="55.57371556435842" lon="38.96286935655668"><ele>121.0</ele><time>2026-05-02T11:39:53.999Z</time></trkpt><trkpt lat="55.57364228354163" lon="38.96281087029252"><ele>121.00000000000001</ele><time>2026-05-02T11:39:55.999Z</time></trkpt><trkpt lat="55.573569331377286" lon="38.96276748654777"><ele>121.0</ele><time>2026-05-02T11:39:57.999Z</time></trkpt><trkpt lat="55.573493322404126" lon="38.962745499575355"><ele>120.83333333333334</ele><time>2026-05-02T11:39:59.999Z</time></trkpt><trkpt lat="55.57340894390763" lon="38.96271271598743"><ele>120.66666666666667</ele><time>2026-05-02T11:40:01.999Z</time></trkpt><trkpt lat="55.57332825555844" lon="38.962676035863566"><ele>120.5</ele><time>2026-05-02T11:40:03.999Z</time></trkpt><trkpt lat="55.573256551133134" lon="38.96264200921146"><ele>120.33333333333334</ele><time>2026-05-02T11:40:05.999Z</time></trkpt><trkpt lat="55.57321416433139" lon="38.962551385437806"><ele>120.16666666666667</ele><time>2026-05-02T11:40:09Z</time></trkpt><trkpt lat="55.573225562552665" lon="38.962430581307224"><ele>120.0</ele><time>2026-05-02T11:40:11Z</time></trkpt><trkpt lat="55.57325442572845" lon="38.96229708737318"><ele>119.83333333333333</ele><time>2026-05-02T11:40:13Z</time></trkpt><trkpt lat="55.5732830573626" lon="38.962164179761984"><ele>119.66666666666666</ele><time>2026-05-02T11:40:15Z</time></trkpt><trkpt lat="55.57331331179819" lon="38.962035307905026"><ele>119.5</ele><time>2026-05-02T11:40:17Z</time></trkpt><trkpt lat="55.573367702482166" lon="38.96190576773894"><ele>119.33333333333333</ele><time>2026-05-02T11:40:19Z</time></trkpt><trkpt lat="55.573396054402615" lon="38.96176137552165"><ele>119.16666666666666</ele><time>2026-05-02T11:40:21Z</time></trkpt><trkpt lat="55.573424707478345" lon="38.96161544958443"><ele>119.0</ele><time>2026-05-02T11:40:23Z</time></trkpt><trkpt lat="55.573454354860004" lon="38.96146445977085"><ele>118.99999999999999</ele><time>2026-05-02T11:40:25Z</time></trkpt><trkpt lat="55.57347446280029" lon="38.96129969905411"><ele>119.0</ele><time>2026-05-02T11:40:27Z</time></trkpt><trkpt lat="55.57350266945289" lon="38.96114907664125"><ele>119.0</ele><time>2026-05-02T11:40:29Z</time></trkpt><trkpt lat="55.57353086575841" lon="38.96100617820541"><ele>119.0</ele><time>2026-05-02T11:40:31Z</time></trkpt><trkpt lat="55.57355998090079" lon="38.96086675690111"><ele>118.99999999999999</ele><time>2026-05-02T11:40:33Z</time></trkpt><trkpt lat="55.57358626277595" lon="38.96072905398513"><ele>119.0</ele><time>2026-05-02T11:40:35Z</time></trkpt><trkpt lat="55.57361209516142" lon="38.96059299795555"><ele>118.99999999999999</ele><time>2026-05-02T11:40:37Z</time></trkpt><trkpt lat="55.573635533867865" lon="38.96045974074186"><ele>119.0</ele><time>2026-05-02T11:40:39Z</time></trkpt><trkpt lat="55.57367817542069" lon="38.960326728587376"><ele>119.0</ele><time>2026-05-02T11:40:41Z</time></trkpt><trkpt lat="55.573705857595975" lon="38.960185291392364"><ele>119.0</ele><time>2026-05-02T11:40:43.001Z</time></trkpt><trkpt lat="55.57373397015608" lon="38.96004175127916"><ele>118.99999999999999</ele><time>2026-05-02T11:40:45.001Z</time></trkpt><trkpt lat="55.5737608165482" lon="38.959904819604"><ele>119.0</ele><time>2026-05-02T11:40:47.001Z</time></trkpt><trkpt lat="55.57378854494397" lon="38.95976338922244"><ele>118.83333333333333</ele><time>2026-05-02T11:40:49.001Z</time></trkpt><trkpt lat="55.573815472168505" lon="38.959626045267356"><ele>118.66666666666666</ele><time>2026-05-02T11:40:51.001Z</time></trkpt><trkpt lat="55.573843049000835" lon="38.95948538795923"><ele>118.5</ele><time>2026-05-02T11:40:53.001Z</time></trkpt><trkpt lat="55.57387073675768" lon="38.95934416483616"><ele>118.33333333333334</ele><time>2026-05-02T11:40:55.001Z</time></trkpt><trkpt lat="55.57389783951396" lon="38.95920592557749"><ele>118.16666666666667</ele><time>2026-05-02T11:40:57.001Z</time></trkpt><trkpt lat="55.57392416789609" lon="38.959071636058056"><ele>118.0</ele><time>2026-05-02T11:40:59.001Z</time></trkpt><trkpt lat="55.57394987090621" lon="38.958940698838965"><ele>117.83333333333334</ele><time>2026-05-02T11:41:01.001Z</time></trkpt><trkpt lat="55.57397669924763" lon="38.95880419291338"><ele>117.66666666666667</ele><time>2026-05-02T11:41:03.001Z</time></trkpt><trkpt lat="55.57398869857814" lon="38.958656578395875"><ele>117.5</ele><time>2026-05-02T11:41:05.001Z</time></trkpt><trkpt lat="55.57401893211346" lon="38.958526379959764"><ele>117.33333333333334</ele><time>2026-05-02T11:41:07.001Z</time></trkpt><trkpt lat="55.57404396975487" lon="38.95839962703194"><ele>117.16666666666667</ele><time>2026-05-02T11:41:09.001Z</time></trkpt><trkpt lat="55.574064942986226" lon="38.958287420845984"><ele>117.0</ele><time>2026-05-02T11:41:11.001Z</time></trkpt><trkpt lat="55.574093949642766" lon="38.95815977014605"><ele>117.0</ele><time>2026-05-02T11:41:14.001Z</time></trkpt><trkpt lat="55.57412740939566" lon="38.95803736103872"><ele>117.00000000000001</ele><time>2026-05-02T11:41:17.001Z</time></trkpt><trkpt lat="55.57415100628082" lon="38.95791729717091"><ele>117.0</ele><time>2026-05-02T11:41:20.002Z</time></trkpt><trkpt lat="55.57417925419858" lon="38.95777356822437"><ele>117.0</ele><time>2026-05-02T11:41:23.002Z</time></trkpt><trkpt lat="55.574191382575734" lon="38.957650994401774"><ele>117.00000000000001</ele><time>2026-05-02T11:41:25.002Z</time></trkpt><trkpt lat="55.574212501658494" lon="38.957545004319556"><ele>117.0</ele><time>2026-05-02T11:41:27.002Z</time></trkpt><trkpt lat="55.574245273440155" lon="38.95743751562499"><ele>117.0</ele><time>2026-05-02T11:41:59.999Z</time></trkpt><trkpt lat="55.5742726628571" lon="38.957297943854016"><ele>117.14285714285715</ele><time>2026-05-02T11:42:03.999Z</time></trkpt><trkpt lat="55.57429481555118" lon="38.95718505755298"><ele>117.2857142857143</ele><time>2026-05-02T11:42:06.999Z</time></trkpt><trkpt lat="55.57431934007353" lon="38.95706006859398"><ele>117.42857142857143</ele><time>2026-05-02T11:42:10Z</time></trkpt><trkpt lat="55.57434331442081" lon="38.95693778333044"><ele>117.57142857142858</ele><time>2026-05-02T11:42:13Z</time></trkpt><trkpt lat="55.574366637695" lon="38.95681887946804"><ele>117.71428571428572</ele><time>2026-05-02T11:42:16Z</time></trkpt><trkpt lat="55.574388091060854" lon="38.95670967140458"><ele>117.85714285714286</ele><time>2026-05-02T11:42:19Z</time></trkpt><trkpt lat="55.574413506109586" lon="38.956580296442155"><ele>118.0</ele><time>2026-05-02T11:44:51.001Z</time></trkpt><trkpt lat="55.57443959317878" lon="38.95644750057395"><ele>118.00000000000001</ele><time>2026-05-02T11:44:55.001Z</time></trkpt><trkpt lat="55.574464505778295" lon="38.956320683378166"><ele>118.0</ele><time>2026-05-02T11:44:58.002Z</time></trkpt><trkpt lat="55.57448990179955" lon="38.95619140525094"><ele>118.0</ele><time>2026-05-02T11:45:01.002Z</time></trkpt><trkpt lat="55.574514597873915" lon="38.95606569023937"><ele>118.0</ele><time>2026-05-02T11:45:05.002Z</time></trkpt><trkpt lat="55.574535516668796" lon="38.95595920340542"><ele>118.00000000000001</ele><time>2026-05-02T11:45:09.002Z</time></trkpt><trkpt lat="55.574559138537346" lon="38.95583895680069"><ele>118.0</ele><time>2026-05-02T11:45:12.002Z</time></trkpt><trkpt lat="55.57462189145239" lon="38.95594136971973"><ele>118.16666666666667</ele><time>2026-05-02T11:45:15.002Z</time></trkpt><trkpt lat="55.574685196206296" lon="38.955983117205015"><ele>118.33333333333334</ele><time>2026-05-02T11:45:17.002Z</time></trkpt><trkpt lat="55.57474884162944" lon="38.95602508935281"><ele>118.5</ele><time>2026-05-02T11:45:19.002Z</time></trkpt><trkpt lat="55.57481579220288" lon="38.95604159858451"><ele>118.66666666666666</ele><time>2026-05-02T11:45:21.002Z</time></trkpt><trkpt lat="55.57490321321478" lon="38.956105887361986"><ele>118.83333333333333</ele><time>2026-05-02T11:45:24.002Z</time></trkpt><trkpt lat="55.57498466242344" lon="38.95616412055497"><ele>119.0</ele><time>2026-05-02T11:45:27.002Z</time></trkpt><trkpt lat="55.57505742679693" lon="38.95620936559857"><ele>118.99999999999999</ele><time>2026-05-02T11:45:30.002Z</time></trkpt><trkpt lat="55.57512021245566" lon="38.95627356990251"><ele>119.0</ele><time>2026-05-02T11:46:00.003Z</time></trkpt><trkpt lat="55.575191568069755" lon="38.95630236853249"><ele>119.0</ele><time>2026-05-02T11:46:08.001Z</time></trkpt><trkpt lat="55.57526216345716" lon="38.956342995251966"><ele>119.0</ele><time>2026-05-02T11:46:11.001Z</time></trkpt><trkpt lat="55.57534203670116" lon="38.95639539312128"><ele>118.99999999999999</ele><time>2026-05-02T11:46:14.001Z</time></trkpt><trkpt lat="55.575415551450924" lon="38.9564468754572"><ele>119.0</ele><time>2026-05-02T11:46:17.001Z</time></trkpt><trkpt lat="55.575469246787414" lon="38.95620841304654"><ele>118.99999999999999</ele><time>2026-05-02T11:46:18.001Z</time></trkpt><trkpt lat="55.5754886582229" lon="38.95609564105091"><ele>119.0</ele><time>2026-05-02T11:46:19.001Z</time></trkpt><trkpt lat="55.57550752756324" lon="38.95595386686631"><ele>119.0</ele><time>2026-05-02T11:46:20.001Z</time></trkpt><trkpt lat="55.57553013383934" lon="38.9557820638625"><ele>119.0</ele><time>2026-05-02T11:46:21.001Z</time></trkpt><trkpt lat="55.57555570483644" lon="38.95561645574201"><ele>118.99999999999999</ele><time>2026-05-02T11:46:22.001Z</time></trkpt><trkpt lat="55.57558935808299" lon="38.955443408940155"><ele>119.0</ele><time>2026-05-02T11:46:23.001Z</time></trkpt><trkpt lat="55.57562413003581" lon="38.95524692049021"><ele>119.25</ele><time>2026-05-02T11:46:24.001Z</time></trkpt><trkpt lat="55.575661347158395" lon="38.955030035096144"><ele>119.5</ele><time>2026-05-02T11:46:25.001Z</time></trkpt><trkpt lat="55.575699671033945" lon="38.95481543600918"><ele>119.75</ele><time>2026-05-02T11:46:26.001Z</time></trkpt><trkpt lat="55.575737599197275" lon="38.954595020808156"><ele>120.0</ele><time>2026-05-02T11:46:27.001Z</time></trkpt><trkpt lat="55.57577645577627" lon="38.95435933617951"><ele>120.0</ele><time>2026-05-02T11:46:28.001Z</time></trkpt><trkpt lat="55.57581632392571" lon="38.95411501631418"><ele>120.0</ele><time>2026-05-02T11:46:29.001Z</time></trkpt><trkpt lat="55.57585905569147" lon="38.9538577204191"><ele>120.0</ele><time>2026-05-02T11:46:30.001Z</time></trkpt><trkpt lat="55.575903633093716" lon="38.95358895686347"><ele>120.0</ele><time>2026-05-02T11:46:31.001Z</time></trkpt><trkpt lat="55.57594624800623" lon="38.95332316491623"><ele>120.0</ele><time>2026-05-02T11:46:32.001Z</time></trkpt><trkpt lat="55.57599030231701" lon="38.953058543229574"><ele>120.0</ele><time>2026-05-02T11:46:33.001Z</time></trkpt><trkpt lat="55.57603558585551" lon="38.95278563018605"><ele>120.0</ele><time>2026-05-02T11:46:34.001Z</time></trkpt><trkpt lat="55.57608178539422" lon="38.95251176718295"><ele>120.0</ele><time>2026-05-02T11:46:35.001Z</time></trkpt><trkpt lat="55.576128975593875" lon="38.95223272874377"><ele>120.0</ele><time>2026-05-02T11:46:36.001Z</time></trkpt><trkpt lat="55.576176666352815" lon="38.951951782606194"><ele>119.66666666666666</ele><time>2026-05-02T11:46:37.001Z</time></trkpt><trkpt lat="55.57622555900513" lon="38.95166933515221"><ele>119.33333333333333</ele><time>2026-05-02T11:46:38.001Z</time></trkpt><trkpt lat="55.57627364172365" lon="38.951384395242115"><ele>119.0</ele><time>2026-05-02T11:46:39.001Z</time></trkpt><trkpt lat="55.576323340882574" lon="38.95109801732959"><ele>119.33333333333333</ele><time>2026-05-02T11:46:40.001Z</time></trkpt><trkpt lat="55.576373897031445" lon="38.95080815210164"><ele>119.66666666666666</ele><time>2026-05-02T11:46:41.001Z</time></trkpt><trkpt lat="55.5764246969117" lon="38.95051748577684"><ele>120.0</ele><time>2026-05-02T11:46:42.001Z</time></trkpt><trkpt lat="55.576476153886745" lon="38.95022772522237"><ele>120.33333333333334</ele><time>2026-05-02T11:46:43.001Z</time></trkpt><trkpt lat="55.57652928005684" lon="38.94994266095226"><ele>120.66666666666667</ele><time>2026-05-02T11:46:44.001Z</time></trkpt><trkpt lat="55.576582814685004" lon="38.94966693144826"><ele>121.0</ele><time>2026-05-02T11:46:45.001Z</time></trkpt><trkpt lat="55.57663778230393" lon="38.94939981909894"><ele>121.0</ele><time>2026-05-02T11:46:46.001Z</time></trkpt><trkpt lat="55.57669438202441" lon="38.94913414320843"><ele>121.0</ele><time>2026-05-02T11:46:47.001Z</time></trkpt><trkpt lat="55.57676740432207" lon="38.94888048585101"><ele>121.0</ele><time>2026-05-02T11:46:48.001Z</time></trkpt><trkpt lat="55.576827016188346" lon="38.94861381398966"><ele>121.33333333333334</ele><time>2026-05-02T11:46:49.001Z</time></trkpt><trkpt lat="55.576887224748155" lon="38.94834451755586"><ele>121.66666666666666</ele><time>2026-05-02T11:46:50.001Z</time></trkpt><trkpt lat="55.576947747335964" lon="38.94807395113864"><ele>122.0</ele><time>2026-05-02T11:46:51.001Z</time></trkpt><trkpt lat="55.57700874869959" lon="38.94779988659264"><ele>121.0</ele><time>2026-05-02T11:46:52.001Z</time></trkpt><trkpt lat="55.57707001352881" lon="38.9475250527963"><ele>120.0</ele><time>2026-05-02T11:46:53.001Z</time></trkpt><trkpt lat="55.577131551702024" lon="38.947250685308006"><ele>119.0</ele><time>2026-05-02T11:46:54.001Z</time></trkpt><trkpt lat="55.57719266577724" lon="38.94697775748103"><ele>119.0</ele><time>2026-05-02T11:46:55.001Z</time></trkpt><trkpt lat="55.57725294665313" lon="38.946707916909766"><ele>119.0</ele><time>2026-05-02T11:46:56.001Z</time></trkpt><trkpt lat="55.57731293576026" lon="38.94643834421192"><ele>119.0</ele><time>2026-05-02T11:46:57.001Z</time></trkpt><trkpt lat="55.577373589060784" lon="38.94616750317265"><ele>119.0</ele><time>2026-05-02T11:46:58.001Z</time></trkpt><trkpt lat="55.57743470021495" lon="38.94589594190274"><ele>119.0</ele><time>2026-05-02T11:46:59.001Z</time></trkpt><trkpt lat="55.57749562783922" lon="38.94562146635779"><ele>119.0</ele><time>2026-05-02T11:47:00.001Z</time></trkpt><trkpt lat="55.57755658214188" lon="38.945348139522544"><ele>119.0</ele><time>2026-05-02T11:47:01.001Z</time></trkpt><trkpt lat="55.57761742354915" lon="38.94507747520793"><ele>119.0</ele><time>2026-05-02T11:47:02.001Z</time></trkpt><trkpt lat="55.57767774460644" lon="38.9448083717604"><ele>119.0</ele><time>2026-05-02T11:47:03.001Z</time></trkpt><trkpt lat="55.577737236312856" lon="38.94454156990547"><ele>118.66666666666666</ele><time>2026-05-02T11:47:04.001Z</time></trkpt><trkpt lat="55.57779630639467" lon="38.94427745468132"><ele>118.33333333333334</ele><time>2026-05-02T11:47:05.001Z</time></trkpt><trkpt lat="55.57785492849929" lon="38.94401534245696"><ele>118.0</ele><time>2026-05-02T11:47:06.001Z</time></trkpt><trkpt lat="55.577912624793036" lon="38.943756783685714"><ele>118.0</ele><time>2026-05-02T11:47:07.001Z</time></trkpt><trkpt lat="55.57796986669834" lon="38.9434997832149"><ele>118.0</ele><time>2026-05-02T11:47:08.001Z</time></trkpt><trkpt lat="55.578026458744645" lon="38.94324619951359"><ele>118.0</ele><time>2026-05-02T11:47:09.001Z</time></trkpt><trkpt lat="55.578082818374746" lon="38.942994140339906"><ele>118.0</ele><time>2026-05-02T11:47:10.001Z</time></trkpt><trkpt lat="55.5781392242451" lon="38.94274187440407"><ele>118.0</ele><time>2026-05-02T11:47:11.001Z</time></trkpt><trkpt lat="55.57819581663306" lon="38.942488774195716"><ele>118.0</ele><time>2026-05-02T11:47:12.001Z</time></trkpt><trkpt lat="55.578252535981825" lon="38.94223510630217"><ele>118.0</ele><time>2026-05-02T11:47:13.001Z</time></trkpt><trkpt lat="55.578309270484226" lon="38.94198137053747"><ele>118.0</ele><time>2026-05-02T11:47:14.001Z</time></trkpt><trkpt lat="55.57836619305809" lon="38.94172725112727"><ele>118.0</ele><time>2026-05-02T11:47:15.001Z</time></trkpt><trkpt lat="55.57842323652959" lon="38.94147197339771"><ele>118.0</ele><time>2026-05-02T11:47:16.001Z</time></trkpt><trkpt lat="55.57847886316175" lon="38.94122264441931"><ele>118.0</ele><time>2026-05-02T11:47:17.001Z</time></trkpt><trkpt lat="55.57851721237431" lon="38.94097130230487"><ele>118.0</ele><time>2026-05-02T11:47:18.001Z</time></trkpt><trkpt lat="55.578573251319526" lon="38.940737025500354"><ele>118.0</ele><time>2026-05-02T11:47:19.001Z</time></trkpt><trkpt lat="55.57862645778824" lon="38.94050357997177"><ele>118.0</ele><time>2026-05-02T11:47:20.002Z</time></trkpt><trkpt lat="55.57867917709294" lon="38.94027150445782"><ele>118.0</ele><time>2026-05-02T11:47:21.002Z</time></trkpt><trkpt lat="55.57873036516772" lon="38.940042933480775"><ele>118.0</ele><time>2026-05-02T11:47:22.002Z</time></trkpt><trkpt lat="55.57878196035323" lon="38.93981928144437"><ele>118.0</ele><time>2026-05-02T11:47:23.002Z</time></trkpt><trkpt lat="55.5788359097387" lon="38.939600451496304"><ele>118.0</ele><time>2026-05-02T11:47:24.002Z</time></trkpt><trkpt lat="55.5788831381276" lon="38.93937944355713"><ele>118.0</ele><time>2026-05-02T11:47:25.002Z</time></trkpt><trkpt lat="55.57892857579075" lon="38.93915968935395"><ele>118.0</ele><time>2026-05-02T11:47:26.002Z</time></trkpt><trkpt lat="55.578976244796415" lon="38.938945828034996"><ele>118.0</ele><time>2026-05-02T11:47:27.002Z</time></trkpt><trkpt lat="55.579023731582524" lon="38.9387429096749"><ele>118.0</ele><time>2026-05-02T11:47:28.002Z</time></trkpt><trkpt lat="55.57906671325927" lon="38.9385566408533"><ele>118.00000000000001</ele><time>2026-05-02T11:47:29.002Z</time></trkpt><trkpt lat="55.57910510270044" lon="38.9383853738002"><ele>118.00000000000001</ele><time>2026-05-02T11:47:30.002Z</time></trkpt><trkpt lat="55.57914394560516" lon="38.93822701771335"><ele>118.0</ele><time>2026-05-02T11:47:31.002Z</time></trkpt><trkpt lat="55.579179952486946" lon="38.938069981917195"><ele>118.0</ele><time>2026-05-02T11:47:32.002Z</time></trkpt><trkpt lat="55.57921176762645" lon="38.93792019968165"><ele>118.16666666666667</ele><time>2026-05-02T11:47:33.002Z</time></trkpt><trkpt lat="55.57923982880196" lon="38.93777466750263"><ele>118.33333333333334</ele><time>2026-05-02T11:47:34.002Z</time></trkpt><trkpt lat="55.57926733259566" lon="38.937635088292886"><ele>118.5</ele><time>2026-05-02T11:47:35.002Z</time></trkpt><trkpt lat="55.57929476511299" lon="38.93749944807589"><ele>118.66666666666666</ele><time>2026-05-02T11:47:36.002Z</time></trkpt><trkpt lat="55.57932183462513" lon="38.93735675825437"><ele>118.83333333333333</ele><time>2026-05-02T11:47:37.002Z</time></trkpt><trkpt lat="55.57936548517452" lon="38.937227436434576"><ele>119.0</ele><time>2026-05-02T11:47:38.002Z</time></trkpt><trkpt lat="55.579376178202736" lon="38.937075663501716"><ele>119.16666666666666</ele><time>2026-05-02T11:47:39.002Z</time></trkpt><trkpt lat="55.57936932943226" lon="38.936934385896585"><ele>119.33333333333333</ele><time>2026-05-02T11:47:40.002Z</time></trkpt><trkpt lat="55.57937780095088" lon="38.93679854972374"><ele>119.5</ele><time>2026-05-02T11:47:41.002Z</time></trkpt><trkpt lat="55.57938639980368" lon="38.93666251276743"><ele>119.66666666666666</ele><time>2026-05-02T11:47:42.002Z</time></trkpt><trkpt lat="55.57939378718948" lon="38.93652705336665"><ele>119.83333333333333</ele><time>2026-05-02T11:47:43.002Z</time></trkpt><trkpt lat="55.579401763554735" lon="38.9363958967469"><ele>120.0</ele><time>2026-05-02T11:47:44.002Z</time></trkpt><trkpt lat="55.5794084593573" lon="38.93626688573903"><ele>120.0</ele><time>2026-05-02T11:47:45.002Z</time></trkpt><trkpt lat="55.579414133764885" lon="38.93613530579898"><ele>120.0</ele><time>2026-05-02T11:47:46.002Z</time></trkpt><trkpt lat="55.579422113122725" lon="38.93599660237686"><ele>120.0</ele><time>2026-05-02T11:47:47.002Z</time></trkpt><trkpt lat="55.57943212719603" lon="38.935850309199544"><ele>120.0</ele><time>2026-05-02T11:47:48.002Z</time></trkpt><trkpt lat="55.579442138628266" lon="38.93569956534741"><ele>120.0</ele><time>2026-05-02T11:47:49.002Z</time></trkpt><trkpt lat="55.579452130793584" lon="38.935552264733744"><ele>120.0</ele><time>2026-05-02T11:47:50.002Z</time></trkpt><trkpt lat="55.57948036161347" lon="38.93540359876235"><ele>120.0</ele><time>2026-05-02T11:47:51.002Z</time></trkpt><trkpt lat="55.579492553517326" lon="38.93524744228793"><ele>120.0</ele><time>2026-05-02T11:47:52.002Z</time></trkpt><trkpt lat="55.57950433315987" lon="38.93509656615587"><ele>120.0</ele><time>2026-05-02T11:47:53.002Z</time></trkpt><trkpt lat="55.57951600525831" lon="38.93494706747055"><ele>120.0</ele><time>2026-05-02T11:47:54.002Z</time></trkpt><trkpt lat="55.57952810819173" lon="38.934792050558734"><ele>120.0</ele><time>2026-05-02T11:47:55.002Z</time></trkpt><trkpt lat="55.579540624361684" lon="38.93463174082675"><ele>120.0</ele><time>2026-05-02T11:47:56.002Z</time></trkpt><trkpt lat="55.57953732809678" lon="38.934460481142594"><ele>119.4</ele><time>2026-05-02T11:47:57.002Z</time></trkpt><trkpt lat="55.57956717344142" lon="38.93429169505404"><ele>118.8</ele><time>2026-05-02T11:47:58.002Z</time></trkpt><trkpt lat="55.579564934452286" lon="38.934108893565444"><ele>118.19999999999999</ele><time>2026-05-02T11:47:59.002Z</time></trkpt><trkpt lat="55.579579979307624" lon="38.933919964252176"><ele>117.6</ele><time>2026-05-02T11:48:00.003Z</time></trkpt><trkpt lat="55.57959607773353" lon="38.933725314187114"><ele>117.0</ele><time>2026-05-02T11:48:01.003Z</time></trkpt><trkpt lat="55.579614708898546" lon="38.933529024209975"><ele>117.19999999999999</ele><time>2026-05-02T11:48:02.003Z</time></trkpt><trkpt lat="55.57962937705364" lon="38.933333299046645"><ele>117.39999999999999</ele><time>2026-05-02T11:48:03.003Z</time></trkpt><trkpt lat="55.57964497018985" lon="38.93314492259479"><ele>117.60000000000001</ele><time>2026-05-02T11:48:04.003Z</time></trkpt><trkpt lat="55.57966183899279" lon="38.93296248623171"><ele>117.80000000000001</ele><time>2026-05-02T11:48:05.003Z</time></trkpt><trkpt lat="55.57967591473538" lon="38.932786909921134"><ele>118.0</ele><time>2026-05-02T11:48:06.003Z</time></trkpt><trkpt lat="55.57969056397054" lon="38.93261676363475"><ele>118.2</ele><time>2026-05-02T11:48:07.003Z</time></trkpt><trkpt lat="55.579701091845486" lon="38.93244542453386"><ele>118.4</ele><time>2026-05-02T11:48:08.003Z</time></trkpt><trkpt lat="55.5797159236879" lon="38.93226955979976"><ele>118.60000000000001</ele><time>2026-05-02T11:48:09Z</time></trkpt><trkpt lat="55.57973063895743" lon="38.93209512466694"><ele>118.80000000000001</ele><time>2026-05-02T11:48:10Z</time></trkpt><trkpt lat="55.579743852929006" lon="38.931921164600574"><ele>119.0</ele><time>2026-05-02T11:48:11Z</time></trkpt><trkpt lat="55.5797581487605" lon="38.93175159911209"><ele>118.6</ele><time>2026-05-02T11:48:12Z</time></trkpt><trkpt lat="55.579772625995915" lon="38.93158099303889"><ele>118.2</ele><time>2026-05-02T11:48:13Z</time></trkpt><trkpt lat="55.57978568270019" lon="38.93140841427318"><ele>117.79999999999998</ele><time>2026-05-02T11:48:14Z</time></trkpt><trkpt lat="55.57979624161274" lon="38.93123139645552"><ele>117.39999999999999</ele><time>2026-05-02T11:48:15Z</time></trkpt><trkpt lat="55.57980416319708" lon="38.93105047001055"><ele>117.0</ele><time>2026-05-02T11:48:16Z</time></trkpt><trkpt lat="55.57980943807436" lon="38.930873394313856"><ele>117.0</ele><time>2026-05-02T11:48:17.001Z</time></trkpt><trkpt lat="55.57980826403069" lon="38.93069898385101"><ele>116.99999999999999</ele><time>2026-05-02T11:48:18.001Z</time></trkpt><trkpt lat="55.57980202003498" lon="38.93053377976274"><ele>116.99999999999999</ele><time>2026-05-02T11:48:19.001Z</time></trkpt><trkpt lat="55.57979474283967" lon="38.930374097124"><ele>117.0</ele><time>2026-05-02T11:48:20.001Z</time></trkpt><trkpt lat="55.579786236834344" lon="38.930218644295515"><ele>117.0</ele><time>2026-05-02T11:48:21.001Z</time></trkpt><trkpt lat="55.579779397198976" lon="38.93007190723966"><ele>117.19999999999999</ele><time>2026-05-02T11:48:22.001Z</time></trkpt><trkpt lat="55.57977066333792" lon="38.92993912080188"><ele>117.39999999999999</ele><time>2026-05-02T11:48:23.001Z</time></trkpt><trkpt lat="55.579763254563254" lon="38.92982175901696"><ele>117.60000000000001</ele><time>2026-05-02T11:48:24.001Z</time></trkpt><trkpt lat="55.57975110524557" lon="38.92962906767917"><ele>117.80000000000001</ele><time>2026-05-02T11:48:26.001Z</time></trkpt><trkpt lat="55.579736323785276" lon="38.92945013886562"><ele>118.0</ele><time>2026-05-02T11:48:28.001Z</time></trkpt><trkpt lat="55.579722083987576" lon="38.92924950094336"><ele>118.16666666666667</ele><time>2026-05-02T11:48:30.001Z</time></trkpt><trkpt lat="55.57970908680364" lon="38.92903009312363"><ele>118.33333333333334</ele><time>2026-05-02T11:48:32.001Z</time></trkpt><trkpt lat="55.57970241998424" lon="38.92891861976604"><ele>118.5</ele><time>2026-05-02T11:48:33.001Z</time></trkpt><trkpt lat="55.57969462916353" lon="38.92879935696011"><ele>118.66666666666666</ele><time>2026-05-02T11:48:34.001Z</time></trkpt><trkpt lat="55.57968547703921" lon="38.928675000454774"><ele>118.83333333333333</ele><time>2026-05-02T11:48:35.001Z</time></trkpt><trkpt lat="55.57967580275165" lon="38.92854776032659"><ele>119.0</ele><time>2026-05-02T11:48:36.001Z</time></trkpt><trkpt lat="55.579666152082936" lon="38.92842364057207"><ele>118.99999999999999</ele><time>2026-05-02T11:48:37.001Z</time></trkpt><trkpt lat="55.579657013219226" lon="38.928302044327246"><ele>119.0</ele><time>2026-05-02T11:48:38.001Z</time></trkpt><trkpt lat="55.57964961933904" lon="38.9281861593739"><ele>119.0</ele><time>2026-05-02T11:48:39.001Z</time></trkpt><trkpt lat="55.57964206274104" lon="38.92807469402789"><ele>119.0</ele><time>2026-05-02T11:48:40.001Z</time></trkpt><trkpt lat="55.57962818406331" lon="38.92785995442616"><ele>118.99999999999999</ele><time>2026-05-02T11:48:42.001Z</time></trkpt><trkpt lat="55.57961574504312" lon="38.9276638242695"><ele>119.0</ele><time>2026-05-02T11:48:44.001Z</time></trkpt><trkpt lat="55.57960871552414" lon="38.92755226595598"><ele>119.16666666666666</ele><time>2026-05-02T11:48:45.001Z</time></trkpt><trkpt lat="55.57960163351582" lon="38.927426302660784"><ele>119.33333333333333</ele><time>2026-05-02T11:48:46.001Z</time></trkpt><trkpt lat="55.579592937804385" lon="38.92728853054793"><ele>119.5</ele><time>2026-05-02T11:48:47.001Z</time></trkpt><trkpt lat="55.57958256770359" lon="38.927137350629934"><ele>119.66666666666666</ele><time>2026-05-02T11:48:48.001Z</time></trkpt><trkpt lat="55.579572253199174" lon="38.926974150880596"><ele>119.83333333333333</ele><time>2026-05-02T11:48:49.001Z</time></trkpt><trkpt lat="55.57956136177776" lon="38.926799059831716"><ele>120.0</ele><time>2026-05-02T11:48:50.001Z</time></trkpt><trkpt lat="55.57954973566567" lon="38.926614888171365"><ele>120.0</ele><time>2026-05-02T11:48:51.001Z</time></trkpt><trkpt lat="55.57953894891658" lon="38.926437816926985"><ele>120.0</ele><time>2026-05-02T11:48:52.001Z</time></trkpt><trkpt lat="55.579527253631746" lon="38.92625612164418"><ele>120.0</ele><time>2026-05-02T11:48:53.001Z</time></trkpt><trkpt lat="55.579514906776716" lon="38.9260720762119"><ele>120.0</ele><time>2026-05-02T11:48:54.002Z</time></trkpt><trkpt lat="55.57950415956044" lon="38.92589479124132"><ele>120.0</ele><time>2026-05-02T11:48:55.002Z</time></trkpt><trkpt lat="55.579492672275045" lon="38.925725226329014"><ele>120.16666666666667</ele><time>2026-05-02T11:48:56.002Z</time></trkpt><trkpt lat="55.57948070141725" lon="38.92556082844753"><ele>120.33333333333334</ele><time>2026-05-02T11:48:57.002Z</time></trkpt><trkpt lat="55.57946992481639" lon="38.92540082933693"><ele>120.5</ele><time>2026-05-02T11:48:58.002Z</time></trkpt><trkpt lat="55.579460621522244" lon="38.92524606192371"><ele>120.66666666666667</ele><time>2026-05-02T11:48:59.002Z</time></trkpt><trkpt lat="55.579450844480995" lon="38.92509557532553"><ele>120.83333333333334</ele><time>2026-05-02T11:49:00.002Z</time></trkpt><trkpt lat="55.57944106184789" lon="38.924951358600445"><ele>121.0</ele><time>2026-05-02T11:49:01.002Z</time></trkpt><trkpt lat="55.57943118128697" lon="38.924810934104634"><ele>121.0</ele><time>2026-05-02T11:49:02.002Z</time></trkpt><trkpt lat="55.57942122664999" lon="38.924673672184056"><ele>120.99999999999999</ele><time>2026-05-02T11:49:03.002Z</time></trkpt><trkpt lat="55.57941153328976" lon="38.924540387821686"><ele>121.0</ele><time>2026-05-02T11:49:04.002Z</time></trkpt><trkpt lat="55.57940303843747" lon="38.924411712059616"><ele>121.0</ele><time>2026-05-02T11:49:05.002Z</time></trkpt><trkpt lat="55.57939531623355" lon="38.924289294062355"><ele>120.99999999999999</ele><time>2026-05-02T11:49:06.002Z</time></trkpt><trkpt lat="55.57938822947758" lon="38.924175650964465"><ele>121.0</ele><time>2026-05-02T11:49:07.002Z</time></trkpt><trkpt lat="55.57938024571175" lon="38.92405564359972"><ele>121.0</ele><time>2026-05-02T11:49:08.002Z</time></trkpt><trkpt lat="55.579371544751794" lon="38.923922840456"><ele>121.16666666666667</ele><time>2026-05-02T11:49:09.002Z</time></trkpt><trkpt lat="55.57936298322631" lon="38.923782645513036"><ele>121.33333333333334</ele><time>2026-05-02T11:49:10.002Z</time></trkpt><trkpt lat="55.57935341948456" lon="38.92364259528579"><ele>121.5</ele><time>2026-05-02T11:49:11.002Z</time></trkpt><trkpt lat="55.57934372402239" lon="38.92350293013875"><ele>121.66666666666666</ele><time>2026-05-02T11:49:12.002Z</time></trkpt><trkpt lat="55.579335149546814" lon="38.92335971026204"><ele>121.83333333333333</ele><time>2026-05-02T11:49:13.002Z</time></trkpt><trkpt lat="55.57932707492775" lon="38.923211693259844"><ele>122.0</ele><time>2026-05-02T11:49:14.002Z</time></trkpt><trkpt lat="55.57931794218594" lon="38.923060983214846"><ele>121.99999999999999</ele><time>2026-05-02T11:49:15.002Z</time></trkpt><trkpt lat="55.579308241311864" lon="38.92291164852721"><ele>122.0</ele><time>2026-05-02T11:49:16.002Z</time></trkpt><trkpt lat="55.57929861123527" lon="38.92277118135766"><ele>122.0</ele><time>2026-05-02T11:49:17.002Z</time></trkpt><trkpt lat="55.57929013918542" lon="38.92264217513001"><ele>122.0</ele><time>2026-05-02T11:49:18.002Z</time></trkpt><trkpt lat="55.57928280772361" lon="38.922525791085405"><ele>121.99999999999999</ele><time>2026-05-02T11:49:19.002Z</time></trkpt><trkpt lat="55.57927189245885" lon="38.92233326404597"><ele>122.0</ele><time>2026-05-02T11:49:21.002Z</time></trkpt><trkpt lat="55.57926209179022" lon="38.92211430597605"><ele>121.99999999999999</ele><time>2026-05-02T11:49:23.002Z</time></trkpt><trkpt lat="55.579254769329836" lon="38.921987499469076"><ele>122.0</ele><time>2026-05-02T11:49:24.002Z</time></trkpt><trkpt lat="55.57924695703879" lon="38.921851751006045"><ele>122.0</ele><time>2026-05-02T11:49:25.002Z</time></trkpt><trkpt lat="55.57923782829369" lon="38.92171761482677"><ele>122.0</ele><time>2026-05-02T11:49:26.002Z</time></trkpt><trkpt lat="55.579229124588764" lon="38.92158978761793"><ele>121.99999999999999</ele><time>2026-05-02T11:49:27.002Z</time></trkpt><trkpt lat="55.5792212575048" lon="38.92145626262879"><ele>122.0</ele><time>2026-05-02T11:49:28.002Z</time></trkpt><trkpt lat="55.57921208629234" lon="38.921311576238544"><ele>121.99999999999999</ele><time>2026-05-02T11:49:29.002Z</time></trkpt><trkpt lat="55.5792045352431" lon="38.92116626492055"><ele>122.0</ele><time>2026-05-02T11:49:30.002Z</time></trkpt><trkpt lat="55.57920007022151" lon="38.92103073143765"><ele>122.0</ele><time>2026-05-02T11:49:31.002Z</time></trkpt><trkpt lat="55.57919752875777" lon="38.92091004783492"><ele>122.0</ele><time>2026-05-02T11:49:32.002Z</time></trkpt><trkpt lat="55.57920076831283" lon="38.92072845994014"><ele>121.99999999999999</ele><time>2026-05-02T11:49:34.002Z</time></trkpt><trkpt lat="55.57925037302033" lon="38.920652396049555"><ele>122.0</ele><time>2026-05-02T11:49:36.002Z</time></trkpt><trkpt lat="55.579355939053265" lon="38.92062892000907"><ele>121.99999999999999</ele><time>2026-05-02T11:49:38.002Z</time></trkpt><trkpt lat="55.579422532394524" lon="38.920614110788634"><ele>122.0</ele><time>2026-05-02T11:49:39.002Z</time></trkpt><trkpt lat="55.57948941505733" lon="38.92059923723054"><ele>121.99999999999999</ele><time>2026-05-02T11:49:40.002Z</time></trkpt><trkpt lat="55.57955451436482" lon="38.920584760259764"><ele>121.99999999999999</ele><time>2026-05-02T11:49:41.002Z</time></trkpt><trkpt lat="55.579624636225276" lon="38.92056916635713"><ele>122.0</ele><time>2026-05-02T11:49:42.002Z</time></trkpt><trkpt lat="55.57970393738156" lon="38.92055153113832"><ele>121.99999999999999</ele><time>2026-05-02T11:49:43.002Z</time></trkpt><trkpt lat="55.57979062212182" lon="38.920532253937154"><ele>121.99999999999999</ele><time>2026-05-02T11:49:44.002Z</time></trkpt><trkpt lat="55.57987591968033" lon="38.92048593461726"><ele>121.99999999999999</ele><time>2026-05-02T11:49:45.002Z</time></trkpt><trkpt lat="55.57996006646085" lon="38.920481109800434"><ele>122.0</ele><time>2026-05-02T11:49:46.002Z</time></trkpt><trkpt lat="55.58003186714214" lon="38.92046673333765"><ele>122.0</ele><time>2026-05-02T11:49:47.002Z</time></trkpt><trkpt lat="55.58014001854105" lon="38.920445193645435"><ele>122.0</ele><time>2026-05-02T11:49:49.002Z</time></trkpt><trkpt lat="55.580209152435216" lon="38.92042869732647"><ele>121.99999999999999</ele><time>2026-05-02T11:50:05.002Z</time></trkpt><trkpt lat="55.58026214803785" lon="38.920272517429474"><ele>122.0</ele><time>2026-05-02T11:50:10.002Z</time></trkpt><trkpt lat="55.58032701418032" lon="38.9201768790467"><ele>121.0</ele><time>2026-05-02T11:50:13.002Z</time></trkpt><trkpt lat="55.58038337632575" lon="38.92040014414296"><ele>119.99999999999999</ele><time>2026-05-02T11:50:14.002Z</time></trkpt><trkpt lat="55.580475033434986" lon="38.9203794025171"><ele>118.99999999999999</ele><time>2026-05-02T11:50:16Z</time></trkpt><trkpt lat="55.5805638570588" lon="38.92035939481581"><ele>118.0</ele><time>2026-05-02T11:50:18Z</time></trkpt><trkpt lat="55.580641873749435" lon="38.920342149363776"><ele>117.0</ele><time>2026-05-02T11:50:20Z</time></trkpt><trkpt lat="55.5807107252321" lon="38.92032692986763"><ele>117.0</ele><time>2026-05-02T11:50:22Z</time></trkpt><trkpt lat="55.58078599495708" lon="38.92031030258515"><ele>117.0</ele><time>2026-05-02T11:50:25Z</time></trkpt><trkpt lat="55.580869673391504" lon="38.92029208797992"><ele>117.0</ele><time>2026-05-02T11:50:28Z</time></trkpt></trkseg></trk></gpx>